createdAt,value
2022-10-18T00:02:25.208Z,13.16
2022-10-18T00:06:28.226Z,13.13
2022-10-18T00:10:31.244Z,13.09
2022-10-18T00:14:34.248Z,13.04
2022-10-18T00:18:38.664Z,13.01
2022-10-18T00:22:42.508Z,12.97
2022-10-18T00:26:45.481Z,12.96
2022-10-18T00:34:57.850Z,12.91
2022-10-18T00:39:01.642Z,12.90
2022-10-18T00:43:04.671Z,12.86
2022-10-18T00:47:11.003Z,12.85
2022-10-18T00:51:16.384Z,12.80
2022-10-18T00:55:20.131Z,12.77
2022-10-18T00:59:24.221Z,12.75
2022-10-18T01:03:27.372Z,12.71
2022-10-18T01:07:44.268Z,12.66
2022-10-18T01:12:10.632Z,12.63
2022-10-18T01:16:22.537Z,12.61
2022-10-18T01:20:57.037Z,12.57
2022-10-18T01:25:10.826Z,12.55
2022-10-18T01:29:21.792Z,12.49
2022-10-18T01:33:34.744Z,12.47
2022-10-18T01:37:39.163Z,12.47
2022-10-18T01:41:44.465Z,12.48
2022-10-18T01:45:48.814Z,12.48
2022-10-18T01:49:59.492Z,12.49
2022-10-18T01:54:03.278Z,12.50
2022-10-18T01:58:15.081Z,12.49
2022-10-18T02:02:30.072Z,12.42
2022-10-18T02:06:40.491Z,12.35
2022-10-18T02:10:47.516Z,12.31
2022-10-18T02:14:51.748Z,12.23
2022-10-18T02:19:01.849Z,12.14
2022-10-18T02:23:08.519Z,12.10
2022-10-18T02:27:12.235Z,12.04
2022-10-18T02:31:20.074Z,12.01
2022-10-18T02:35:27.020Z,11.94
2022-10-18T02:39:35.304Z,11.89
2022-10-18T02:43:38.448Z,11.86
2022-10-18T02:47:41.585Z,11.84
2022-10-18T02:51:44.943Z,11.79
2022-10-18T02:55:49.330Z,11.74
2022-10-18T02:59:52.329Z,11.70
2022-10-18T03:03:55.379Z,11.71
2022-10-18T03:07:58.618Z,11.71
2022-10-18T03:12:03.022Z,11.66
2022-10-18T03:16:06.577Z,11.63
2022-10-18T03:20:10.462Z,11.53
2022-10-18T03:24:13.431Z,11.49
2022-10-18T03:28:17.873Z,11.48
2022-10-18T03:32:20.871Z,11.48
2022-10-18T03:36:23.899Z,11.49
2022-10-18T03:40:27.064Z,11.50
2022-10-18T03:44:31.727Z,11.48
2022-10-18T03:48:34.949Z,11.43
2022-10-18T03:52:37.946Z,11.39
2022-10-18T03:56:41.166Z,11.35
2022-10-18T04:00:45.569Z,11.31
2022-10-18T04:04:48.579Z,11.28
2022-10-18T04:08:51.795Z,11.25
2022-10-18T04:12:54.805Z,11.24
2022-10-18T04:16:59.194Z,11.17
2022-10-18T04:21:02.342Z,11.06
2022-10-18T04:25:06.219Z,11.00
2022-10-18T04:29:09.288Z,10.97
2022-10-18T04:33:13.867Z,10.96
2022-10-18T04:37:17.520Z,10.95
2022-10-18T04:41:20.500Z,10.92
2022-10-18T04:45:23.536Z,10.88
2022-10-18T04:49:27.948Z,10.85
2022-10-18T04:53:31.207Z,10.81
2022-10-18T04:57:34.395Z,10.77
2022-10-18T05:01:37.655Z,10.72
2022-10-18T05:06:00.847Z,10.68
2022-10-18T05:10:05.131Z,10.61
2022-10-18T05:14:10.164Z,10.59
2022-10-18T05:18:13.358Z,10.57
2022-10-18T05:22:17.761Z,10.56
2022-10-18T05:26:21.316Z,10.55
2022-10-18T05:30:24.411Z,10.56
2022-10-18T05:34:31.873Z,10.58
2022-10-18T05:38:39.068Z,10.60
2022-10-18T05:42:42.303Z,10.60
2022-10-18T05:46:53.542Z,10.61
2022-10-18T05:51:00.508Z,10.63
2022-10-18T05:55:05.490Z,10.62
2022-10-18T05:59:12.318Z,10.64
2022-10-18T06:03:15.832Z,10.63
2022-10-18T06:07:18.844Z,10.64
2022-10-18T06:11:23.275Z,10.64
2022-10-18T06:15:26.444Z,10.62
2022-10-18T06:19:29.455Z,10.63
2022-10-18T06:23:32.651Z,10.66
2022-10-18T06:27:37.076Z,10.67
2022-10-18T06:31:40.087Z,10.66
2022-10-18T06:35:43.102Z,10.69
2022-10-18T06:39:46.072Z,10.71
2022-10-18T06:43:51.289Z,10.76
2022-10-18T06:47:54.455Z,10.85
2022-10-18T06:51:57.530Z,10.90
2022-10-18T06:56:01.731Z,10.94
2022-10-18T07:00:08.118Z,11.00
2022-10-18T07:04:11.108Z,11.06
2022-10-18T07:08:14.089Z,11.13
2022-10-18T07:12:17.869Z,11.21
2022-10-18T07:16:22.500Z,11.32
2022-10-18T07:20:25.524Z,11.42
2022-10-18T07:24:28.542Z,11.53
2022-10-18T07:28:31.857Z,11.61
2022-10-18T07:32:36.328Z,11.69
2022-10-18T07:36:39.825Z,11.79
2022-10-18T07:40:42.872Z,11.88
2022-10-18T07:44:45.879Z,11.96
2022-10-18T07:48:50.837Z,12.04
2022-10-18T07:52:53.845Z,12.11
2022-10-18T07:56:56.864Z,12.19
2022-10-18T08:01:04.228Z,12.29
2022-10-18T08:05:09.565Z,12.41
2022-10-18T08:09:12.567Z,12.46
2022-10-18T08:13:15.884Z,12.54
2022-10-18T08:17:19.068Z,12.53
2022-10-18T08:21:23.567Z,12.54
2022-10-18T08:25:26.691Z,12.58
2022-10-18T08:29:32.052Z,12.60
2022-10-18T08:33:36.226Z,12.66
2022-10-18T08:37:41.231Z,12.74
2022-10-18T08:42:12.657Z,12.81
2022-10-18T08:46:15.920Z,12.93
2022-10-18T08:50:22.179Z,13.02
2022-10-18T08:54:32.044Z,13.09
2022-10-18T08:58:35.091Z,13.23
2022-10-18T09:02:46.003Z,13.29
2022-10-18T09:06:57.267Z,13.37
2022-10-18T09:11:16.105Z,13.47
2022-10-18T09:15:34.198Z,13.58
2022-10-18T09:19:55.089Z,13.69
2022-10-18T09:24:06.777Z,13.78
2022-10-18T09:28:18.164Z,13.90
2022-10-18T09:32:33.435Z,14.00
2022-10-18T09:36:39.464Z,14.14
2022-10-18T09:40:54.568Z,14.31
2022-10-18T09:45:02.918Z,14.45
2022-10-18T09:49:14.240Z,14.56
2022-10-18T09:53:27.617Z,14.68
2022-10-18T09:57:36.778Z,14.79
2022-10-18T10:01:41.282Z,14.93
2022-10-18T10:05:44.791Z,15.09
2022-10-18T10:09:49.936Z,15.17
2022-10-18T10:13:52.952Z,15.23
2022-10-18T10:17:58.884Z,15.34
2022-10-18T10:22:06.633Z,15.44
2022-10-18T10:26:24.181Z,15.52
2022-10-18T10:30:29.308Z,15.64
2022-10-18T10:34:33.730Z,15.69
2022-10-18T10:38:36.723Z,15.76
2022-10-18T10:42:59.990Z,15.84
2022-10-18T10:47:27.718Z,15.93
2022-10-18T10:51:34.258Z,15.98
2022-10-18T10:55:37.599Z,16.03
2022-10-18T10:59:45.464Z,16.09
2022-10-18T11:03:49.865Z,16.22
2022-10-18T11:07:58.152Z,16.21
2022-10-18T11:12:09.365Z,16.27
2022-10-18T11:16:17.656Z,16.34
2022-10-18T11:20:28.780Z,16.39
2022-10-18T11:24:33.317Z,16.44
2022-10-18T11:28:49.852Z,16.48
2022-10-18T11:33:03.223Z,16.54
2022-10-18T11:37:29.409Z,16.66
2022-10-18T11:41:40.913Z,16.77
2022-10-18T11:45:51.087Z,16.79
2022-10-18T11:50:08.156Z,16.84
2022-10-18T11:54:26.427Z,16.88
2022-10-18T11:59:03.836Z,16.90
2022-10-18T12:03:33.420Z,16.91
2022-10-18T12:07:43.139Z,16.97
2022-10-18T12:11:55.481Z,17.08
2022-10-18T12:16:01.866Z,17.15
2022-10-18T12:20:12.579Z,17.25
2022-10-18T12:24:19.990Z,17.29
2022-10-18T12:28:34.586Z,17.33
2022-10-18T12:32:44.728Z,17.37
2022-10-18T12:37:18.078Z,17.43
2022-10-18T12:41:24.590Z,17.46
2022-10-18T12:45:33.444Z,17.46
2022-10-18T12:49:42.680Z,17.52
2022-10-18T12:53:50.448Z,17.53
2022-10-18T12:58:23.469Z,17.52
2022-10-18T13:02:31.947Z,17.53
2022-10-18T13:07:00.887Z,17.56
2022-10-18T13:11:36.089Z,17.57
2022-10-18T13:15:45.627Z,17.58
2022-10-18T13:20:24.037Z,17.58
2022-10-18T13:24:33.239Z,17.59
2022-10-18T13:28:46.144Z,17.59
2022-10-18T13:32:57.680Z,17.62
2022-10-18T13:37:03.283Z,17.64
2022-10-18T13:41:08.896Z,17.67
2022-10-18T13:45:56.525Z,17.69
2022-10-18T13:50:39.464Z,17.70
2022-10-18T13:54:59.777Z,17.71
2022-10-18T13:59:26.208Z,17.71
2022-10-18T14:04:14.110Z,17.72
2022-10-18T14:08:22.276Z,17.71
2022-10-18T14:12:32.298Z,17.70
2022-10-18T14:16:41.350Z,17.69
2022-10-18T14:21:12.264Z,17.67
2022-10-18T14:25:23.549Z,17.67
2022-10-18T14:29:26.586Z,17.64
2022-10-18T14:33:34.720Z,17.63
2022-10-18T14:37:40.242Z,17.62
2022-10-18T14:41:50.547Z,17.61
2022-10-18T14:45:53.585Z,17.62
2022-10-18T14:49:57.812Z,17.65
2022-10-18T14:54:02.496Z,17.65
2022-10-18T14:58:15.691Z,17.64
2022-10-18T15:02:22.489Z,17.62
2022-10-18T15:06:25.743Z,17.59
2022-10-18T15:10:33.381Z,17.55
2022-10-18T15:14:37.895Z,17.54
2022-10-18T15:18:41.496Z,17.53
2022-10-18T15:22:47.625Z,17.47
2022-10-18T15:26:53.599Z,17.40
2022-10-18T15:30:58.750Z,17.36
2022-10-18T15:35:10.121Z,17.28
2022-10-18T15:39:18.594Z,17.23
2022-10-18T15:43:38.721Z,17.17
2022-10-18T15:47:57.356Z,17.16
2022-10-18T15:52:35.200Z,17.09
2022-10-18T15:56:41.432Z,17.00
2022-10-18T16:00:47.751Z,16.95
2022-10-18T16:04:51.031Z,16.90
2022-10-18T16:08:55.224Z,16.80
2022-10-18T16:12:58.250Z,16.74
2022-10-18T16:17:06.297Z,16.69
2022-10-18T16:21:17.968Z,16.61
2022-10-18T16:25:20.940Z,16.53
2022-10-18T16:29:26.899Z,16.44
2022-10-18T16:33:31.942Z,16.40
2022-10-18T16:37:35.157Z,16.37
2022-10-18T16:41:38.359Z,16.37
2022-10-18T16:45:41.669Z,16.38
2022-10-18T16:49:46.927Z,16.39
2022-10-18T16:53:50.288Z,16.38
2022-10-18T16:57:53.301Z,16.39
2022-10-18T17:01:56.501Z,16.38
2022-10-18T17:06:00.966Z,16.33
2022-10-18T17:10:04.263Z,16.27
2022-10-18T17:14:07.336Z,16.21
2022-10-18T17:18:15.603Z,16.17
2022-10-18T17:22:19.930Z,16.11
2022-10-18T17:26:29.317Z,16.06
2022-10-18T17:30:33.501Z,16.04
2022-10-18T17:34:37.127Z,16.03
2022-10-18T17:38:41.618Z,15.98
2022-10-18T17:42:44.800Z,15.94
2022-10-18T17:46:47.874Z,15.91
2022-10-18T17:50:50.911Z,15.84
2022-10-18T17:54:55.333Z,15.74
2022-10-18T17:58:58.399Z,15.65
2022-10-18T18:03:02.108Z,15.58
2022-10-18T18:07:05.447Z,15.54
2022-10-18T18:11:09.983Z,15.47
2022-10-18T18:15:13.396Z,15.41
2022-10-18T18:19:18.964Z,15.33
2022-10-18T18:23:22.779Z,15.27
2022-10-18T18:27:27.177Z,15.22
2022-10-18T18:31:34.417Z,15.19
2022-10-18T18:35:41.767Z,15.15
2022-10-18T18:39:44.802Z,15.08
2022-10-18T18:43:52.471Z,15.07
2022-10-18T18:47:55.478Z,15.06
2022-10-18T18:51:58.727Z,15.02
2022-10-18T18:56:03.577Z,14.99
2022-10-18T19:00:10.571Z,14.97
2022-10-18T19:04:13.876Z,14.93
2022-10-18T19:08:16.904Z,14.90
2022-10-18T19:12:21.288Z,14.86
2022-10-18T19:16:28.181Z,14.83
2022-10-18T19:20:31.402Z,14.74
2022-10-18T19:24:34.393Z,14.65
2022-10-18T19:28:37.462Z,14.61
2022-10-18T19:32:41.807Z,14.48
2022-10-18T19:36:46.963Z,14.43
2022-10-18T19:40:53.756Z,14.37
2022-10-18T19:44:56.877Z,14.34
2022-10-18T19:49:01.294Z,14.30
2022-10-18T19:53:04.422Z,14.27
2022-10-18T19:57:07.706Z,14.26
2022-10-18T20:01:10.867Z,14.18
2022-10-18T20:05:15.678Z,14.14
2022-10-18T20:09:21.346Z,14.14
2022-10-18T20:13:24.358Z,14.12
2022-10-18T20:17:27.347Z,14.12
2022-10-18T20:21:35.574Z,14.10
2022-10-18T20:25:38.738Z,14.10
2022-10-18T20:29:41.700Z,14.07
2022-10-18T20:33:45.771Z,14.08
2022-10-18T20:37:50.183Z,14.13
2022-10-18T20:41:53.289Z,14.26
2022-10-18T20:46:00.163Z,14.39
2022-10-18T20:50:03.319Z,14.51
2022-10-18T20:54:08.745Z,14.61
2022-10-18T20:58:11.883Z,14.67
2022-10-18T21:02:15.075Z,14.70
2022-10-18T21:06:20.203Z,14.76
2022-10-18T21:10:24.880Z,14.82
2022-10-18T21:14:27.891Z,14.87
2022-10-18T21:18:33.027Z,14.93
2022-10-18T21:22:36.133Z,14.98
2022-10-18T21:26:40.786Z,15.03
2022-10-18T21:30:43.880Z,15.09
2022-10-18T21:34:46.903Z,15.10
2022-10-18T21:38:50.191Z,15.11
2022-10-18T21:42:54.582Z,15.13
2022-10-18T21:46:57.745Z,15.13
2022-10-18T21:51:04.415Z,15.13
2022-10-18T21:55:08.383Z,15.13
2022-10-18T21:59:14.115Z,15.14
2022-10-18T22:03:17.084Z,15.16
2022-10-18T22:07:20.093Z,15.18
2022-10-18T22:11:26.148Z,15.18
2022-10-18T22:15:30.765Z,15.17
2022-10-18T22:19:33.867Z,15.13
2022-10-18T22:23:42.506Z,15.10
2022-10-18T22:27:45.604Z,15.08
2022-10-18T22:31:51.547Z,15.07
2022-10-18T22:35:54.551Z,15.06
2022-10-18T22:39:57.632Z,15.04
2022-10-18T22:44:03.423Z,15.01
2022-10-18T22:48:08.728Z,14.99
2022-10-18T22:52:11.709Z,14.99
2022-10-18T22:56:17.547Z,15.01
2022-10-18T23:00:20.546Z,15.01
2022-10-18T23:04:25.027Z,14.99
2022-10-18T23:08:28.614Z,14.97
2022-10-18T23:12:31.892Z,14.96
2022-10-18T23:16:35.534Z,14.93
2022-10-18T23:20:39.935Z,14.93
2022-10-18T23:24:44.285Z,14.92
2022-10-18T23:28:49.055Z,14.93
2022-10-18T23:32:52.302Z,14.92
2022-10-18T23:36:56.716Z,14.93
2022-10-18T23:40:59.777Z,14.92
2022-10-18T23:45:02.944Z,14.90
2022-10-18T23:49:06.051Z,14.87
2022-10-18T23:53:10.568Z,14.85
2022-10-18T23:57:13.635Z,14.85
